Candarli, Turkey

10:52 PM +03 on November 19, 2017 (GMT +0300)
Topel Air Base | | Change Station

Elev 180 ft 40.71 °N, 30.12 °E | Updated 1 hour ago

Mostly Cloudy
Mostly Cloudy
55 °F
Feels Like 55 °F
N
4
Wind Variable Wind from Variable

Today
High -- | Low -- °F
--% Chance of Precip.
Yesterday
High -- | Low -- °F
Precip. -- in
Pressure 29.77 in
Visibility 3.7 miles
Clouds Scattered Clouds 2500 ft
Mostly Cloudy 8000 ft
Dew Point 52 °F
Humidity 88%
Rainfall 0.00 in
Snow Depth Not available.
7:51 AM 5:40 PM
New Moon, 2% visible
METAR LTBQ 191850Z VRB03KT 6000 SCT025 BKN080 13/11 Q1008 NOSIG
Pressure 29.77 in
Visibility 3.7 miles
Clouds Scattered Clouds 2500 ft
Mostly Cloudy 8000 ft
Dew Point 52 °F
Humidity 88%
Rainfall 0.00 in
Snow Depth Not available.
7:51 AM 5:40 PM
New Moon, 2% visible
METAR LTBQ 191850Z VRB03KT 6000 SCT025 BKN080 13/11 Q1008 NOSIG

Get Severe Weather Alerts

Thanks for signing up!

Be on the lookout for a verification email in your inbox.

You'll start receiving the daily forecast at 6 AM.

×

10-Day Weather Forecast

×

Almanac

Astronomy

Nov. 19, 2017 Rise Set
Actual Time
Civil Twilight
Nautical Twilight
Astronomical Twilight
Moon
Length of Visible Light
Length of Day
Tomorrow will be .
, % of the Moon is Illuminated

Today's Extremes

Country Highs Country Lows

Community

WunderPhotos

Category 6

Welcome to Category 6. This is the collective home for Weather Underground's featured writeups by Dr. Jeff Masters (right), Bob Henson (left), Chris Burt, and other regular contributors.

Nearby

Air Quality

  Air Quality AQ Index Pollutant
Not available.

Snow Depth

Station Depth Elevation

Earthquake Activity

City Distance Mag. Time & Date
Minimum magnitude displayed is 2.5.

Coastal Water Temperatures

Place Temperature

Stations

Nearby Weather Stations

Station Location Temp. Windchill Dew Point Humidity Wind Precip. Elev Updated Type